createdAt,value
2022-12-24T04:00:26.027Z,10.50
2022-12-24T04:02:55.133Z,10.50
2022-12-24T04:05:23.445Z,10.50
2022-12-24T04:07:51.319Z,10.50
2022-12-24T04:10:19.411Z,10.50
2022-12-24T04:12:47.242Z,10.50
2022-12-24T04:15:15.074Z,10.50
2022-12-24T04:17:44.358Z,10.50
2022-12-24T04:20:13.411Z,10.50
2022-12-24T04:22:42.089Z,10.50
2022-12-24T04:25:11.159Z,10.50
2022-12-24T04:27:38.963Z,10.40
2022-12-24T04:30:08.472Z,10.40
2022-12-24T04:32:36.326Z,10.40
2022-12-24T04:35:05.970Z,10.40
2022-12-24T04:37:35.202Z,10.40
2022-12-24T04:40:03.178Z,10.40
2022-12-24T04:42:31.104Z,10.40
2022-12-24T04:44:58.974Z,10.40
2022-12-24T04:47:26.966Z,10.40
2022-12-24T04:49:54.856Z,10.30
2022-12-24T04:52:24.091Z,10.30
2022-12-24T04:54:51.914Z,10.30
2022-12-24T04:57:19.791Z,10.30
2022-12-24T04:59:47.621Z,10.30
2022-12-24T05:02:15.628Z,10.30
2022-12-24T05:04:43.688Z,10.30
2022-12-24T05:07:11.607Z,10.20
2022-12-24T05:09:41.067Z,10.20
2022-12-24T05:12:09.154Z,10.30
2022-12-24T05:14:37.203Z,10.40
2022-12-24T05:17:05.223Z,10.30
2022-12-24T05:19:33.348Z,10.30
2022-12-24T05:22:18.860Z,10.40
2022-12-24T05:25:05.627Z,10.40
2022-12-24T05:27:33.584Z,10.30
2022-12-24T05:30:01.404Z,10.30
2022-12-24T05:32:29.648Z,10.30
2022-12-24T05:34:57.511Z,10.30
2022-12-24T05:37:25.437Z,10.30
2022-12-24T05:39:54.627Z,10.30
2022-12-24T05:42:22.486Z,10.40
2022-12-24T05:44:50.293Z,10.30
2022-12-24T05:47:18.115Z,10.40
2022-12-24T05:49:45.935Z,10.40
2022-12-24T05:52:13.711Z,10.40
2022-12-24T05:54:41.545Z,10.40
2022-12-24T05:57:10.705Z,10.40
2022-12-24T05:59:38.611Z,10.40
2022-12-24T06:02:06.476Z,10.40
2022-12-24T06:04:34.399Z,10.40
2022-12-24T06:07:02.264Z,10.40
2022-12-24T06:09:30.094Z,10.40
2022-12-24T06:11:57.928Z,10.40
2022-12-24T06:14:27.128Z,10.50
2022-12-24T06:16:54.941Z,10.50
2022-12-24T06:19:22.852Z,10.50
2022-12-24T06:21:50.934Z,10.40
2022-12-24T06:24:18.922Z,10.40
2022-12-24T06:26:46.848Z,10.40
2022-12-24T06:29:14.790Z,10.50
2022-12-24T06:31:44.089Z,10.50
2022-12-24T06:34:11.959Z,10.40
2022-12-24T06:36:39.875Z,10.50
2022-12-24T06:39:07.748Z,10.40
2022-12-24T06:41:35.604Z,10.40
2022-12-24T06:44:03.528Z,10.30
2022-12-24T06:46:31.509Z,10.30
2022-12-24T06:49:00.705Z,10.20
2022-12-24T06:51:28.640Z,10.20
2022-12-24T06:53:56.515Z,10.20
2022-12-24T06:56:24.495Z,10.20
2022-12-24T06:58:52.396Z,10.20
2022-12-24T07:01:21.645Z,10.20
2022-12-24T07:03:49.779Z,10.20
2022-12-24T07:06:21.615Z,10.20
2022-12-24T07:08:49.518Z,10.20
2022-12-24T07:11:17.951Z,10.20
2022-12-24T07:13:45.976Z,10.20
2022-12-24T07:16:14.226Z,10.20
2022-12-24T07:18:42.186Z,10.20
2022-12-24T07:21:10.825Z,10.20
2022-12-24T07:23:40.000Z,10.20
2022-12-24T07:26:08.662Z,10.20
2022-12-24T07:28:36.510Z,10.20
2022-12-24T07:31:04.737Z,10.20
2022-12-24T07:33:32.791Z,10.10
2022-12-24T07:36:02.428Z,10.10
2022-12-24T07:38:31.087Z,10.10
2022-12-24T07:41:00.771Z,10.20
2022-12-24T07:43:29.422Z,10.20
2022-12-24T07:45:58.289Z,10.20
2022-12-24T07:48:27.593Z,10.20
2022-12-24T07:50:55.767Z,10.20
2022-12-24T07:53:24.369Z,10.20
2022-12-24T07:55:52.226Z,10.20
2022-12-24T07:58:21.845Z,10.30
2022-12-24T08:00:49.705Z,10.30
2022-12-24T08:03:19.394Z,10.30
2022-12-24T08:05:47.775Z,10.30
2022-12-24T08:08:15.817Z,10.30
2022-12-24T08:10:45.177Z,10.30
2022-12-24T08:13:13.421Z,10.30
2022-12-24T08:15:42.826Z,10.40
2022-12-24T08:18:11.295Z,10.40
2022-12-24T08:20:40.153Z,10.40
2022-12-24T08:23:08.281Z,10.40
2022-12-24T08:25:36.788Z,10.40
2022-12-24T08:28:04.775Z,10.40
2022-12-24T08:30:32.661Z,10.40
2022-12-24T08:33:01.916Z,10.40
2022-12-24T08:35:29.821Z,10.40
2022-12-24T08:37:57.952Z,10.30
2022-12-24T08:40:26.008Z,10.20
2022-12-24T08:42:53.917Z,10.10
2022-12-24T08:45:21.814Z,10.10
2022-12-24T08:47:49.712Z,10.10
2022-12-24T08:50:19.122Z,10.00
2022-12-24T08:52:46.932Z,10.00
2022-12-24T08:55:14.775Z,10.00
2022-12-24T08:57:42.623Z,10.00
2022-12-24T09:00:13.284Z,10.00
2022-12-24T09:02:41.217Z,10.00
2022-12-24T09:05:09.830Z,9.90
2022-12-24T09:07:39.038Z,9.90
2022-12-24T09:10:08.404Z,9.90
2022-12-24T09:12:36.283Z,9.90
2022-12-24T09:15:05.864Z,9.90
2022-12-24T09:17:34.752Z,9.90
2022-12-24T09:20:02.611Z,9.90
2022-12-24T09:22:30.482Z,10.00
2022-12-24T09:24:59.624Z,10.00
2022-12-24T09:27:27.455Z,10.00
2022-12-24T09:29:55.273Z,10.10
2022-12-24T09:32:23.113Z,10.10
2022-12-24T09:34:51.071Z,10.20
2022-12-24T09:37:19.156Z,10.10
2022-12-24T09:39:47.125Z,10.10
2022-12-24T09:42:28.878Z,10.20
2022-12-24T09:45:03.625Z,10.30
2022-12-24T09:47:38.357Z,10.30
2022-12-24T09:50:19.467Z,10.40
2022-12-24T09:52:48.594Z,10.50
2022-12-24T09:55:22.849Z,10.40
2022-12-24T09:57:55.076Z,10.40
2022-12-24T10:00:26.656Z,10.50
2022-12-24T10:02:54.620Z,10.50
2022-12-24T10:05:32.028Z,10.50
2022-12-24T10:08:08.715Z,10.70
2022-12-24T10:10:41.707Z,10.70
2022-12-24T10:13:17.496Z,10.80
2022-12-24T10:15:53.211Z,10.80
2022-12-24T10:18:30.113Z,10.80
2022-12-24T10:21:06.027Z,10.70
2022-12-24T10:23:39.309Z,10.70
2022-12-24T10:26:14.080Z,10.80
2022-12-24T10:28:49.729Z,11.00
2022-12-24T10:31:18.978Z,11.00
2022-12-24T10:33:51.519Z,11.10
2022-12-24T10:36:22.857Z,11.10
2022-12-24T10:38:50.663Z,11.20
2022-12-24T10:41:18.679Z,11.30
2022-12-24T10:43:49.439Z,11.20
2022-12-24T10:46:21.913Z,11.30
2022-12-24T10:48:55.688Z,11.40
2022-12-24T10:51:30.519Z,11.40
2022-12-24T10:54:02.867Z,11.40
2022-12-24T10:56:30.718Z,11.40
2022-12-24T10:58:59.944Z,11.40
2022-12-24T11:01:46.536Z,11.50
2022-12-24T11:04:18.642Z,11.50
2022-12-24T11:06:58.492Z,11.60
2022-12-24T11:09:29.149Z,11.60
2022-12-24T11:12:00.454Z,11.60
2022-12-24T11:14:38.303Z,11.60
2022-12-24T11:17:06.873Z,11.70
2022-12-24T11:19:38.736Z,11.70
2022-12-24T11:22:08.288Z,11.70
2022-12-24T11:24:38.869Z,11.60
2022-12-24T11:27:39.499Z,11.60
2022-12-24T11:30:25.247Z,11.60
2022-12-24T11:33:17.843Z,11.60
2022-12-24T11:35:49.276Z,11.50
2022-12-24T11:38:22.232Z,11.50
2022-12-24T11:40:51.797Z,11.50
2022-12-24T11:43:21.172Z,11.50
2022-12-24T11:45:52.878Z,11.50
2022-12-24T11:48:30.008Z,11.60
2022-12-24T11:50:59.509Z,11.70
2022-12-24T11:53:34.713Z,11.70
2022-12-24T11:56:07.735Z,11.80
2022-12-24T11:58:41.476Z,11.90
2022-12-24T12:01:19.027Z,11.90
2022-12-24T12:03:50.047Z,12.00
2022-12-24T12:06:37.583Z,12.10
2022-12-24T12:09:11.827Z,12.10
2022-12-24T12:11:42.593Z,12.10
2022-12-24T12:14:19.255Z,12.10
2022-12-24T12:17:04.466Z,12.10
2022-12-24T12:19:39.418Z,12.10
2022-12-24T12:22:12.352Z,12.10
2022-12-24T12:24:47.143Z,12.20
2022-12-24T12:27:22.387Z,12.30
2022-12-24T12:29:56.664Z,12.30
2022-12-24T12:32:29.776Z,12.40
2022-12-24T12:35:05.918Z,12.30
2022-12-24T12:37:39.199Z,12.40
2022-12-24T12:40:14.848Z,12.40
2022-12-24T12:42:51.693Z,12.40
2022-12-24T12:45:34.719Z,12.30
2022-12-24T12:48:36.368Z,12.30
2022-12-24T12:51:10.212Z,12.30
2022-12-24T12:53:48.221Z,12.30
2022-12-24T12:56:31.356Z,12.30
2022-12-24T12:59:04.460Z,12.20
2022-12-24T13:01:43.329Z,12.20
2022-12-24T13:04:35.861Z,12.30
2022-12-24T13:07:37.616Z,12.40
2022-12-24T13:10:27.132Z,12.30
2022-12-24T13:13:13.041Z,12.30
2022-12-24T13:15:58.643Z,12.30
2022-12-24T13:18:45.036Z,12.20
2022-12-24T13:21:21.986Z,12.10
2022-12-24T13:23:50.194Z,12.10
2022-12-24T13:26:19.373Z,12.00
2022-12-24T13:28:47.211Z,12.00
2022-12-24T13:31:31.561Z,12.00
2022-12-24T13:34:02.554Z,12.00
2022-12-24T13:37:04.779Z,12.10
2022-12-24T13:40:16.684Z,12.10
2022-12-24T13:42:50.099Z,12.10
2022-12-24T13:45:48.009Z,12.00
2022-12-24T13:48:30.060Z,11.90
2022-12-24T13:51:01.420Z,11.90
2022-12-24T13:53:32.960Z,11.90
2022-12-24T13:56:07.724Z,11.80
2022-12-24T13:58:37.263Z,11.80
2022-12-24T14:01:09.526Z,11.90
2022-12-24T14:03:43.342Z,11.80
2022-12-24T14:06:14.599Z,11.80
2022-12-24T14:08:46.125Z,11.90
2022-12-24T14:11:18.183Z,11.90
2022-12-24T14:13:54.946Z,11.90
2022-12-24T14:16:24.392Z,11.90
2022-12-24T14:19:00.282Z,11.90
2022-12-24T14:21:31.861Z,11.80
2022-12-24T14:24:02.600Z,11.80
2022-12-24T14:26:37.235Z,11.80
2022-12-24T14:29:14.790Z,11.70
2022-12-24T14:31:52.556Z,11.60
2022-12-24T14:34:20.713Z,11.50
2022-12-24T14:36:51.079Z,11.40
2022-12-24T14:39:26.157Z,11.30
2022-12-24T14:42:03.928Z,11.30
2022-12-24T14:44:41.212Z,11.30
2022-12-24T14:47:22.724Z,11.20
2022-12-24T14:50:25.576Z,11.10
2022-12-24T14:53:07.347Z,11.00
2022-12-24T14:55:42.075Z,11.00
2022-12-24T14:58:37.225Z,10.90
2022-12-24T15:01:21.022Z,10.90
2022-12-24T15:04:01.905Z,10.80
2022-12-24T15:06:32.742Z,10.80
2022-12-24T15:09:00.855Z,10.70
2022-12-24T15:11:29.035Z,10.80
2022-12-24T15:14:01.017Z,10.80
2022-12-24T15:16:33.424Z,10.80
2022-12-24T15:19:05.023Z,10.80
2022-12-24T15:21:34.708Z,10.80
2022-12-24T15:24:02.642Z,10.80
2022-12-24T15:26:36.061Z,10.80
2022-12-24T15:29:22.151Z,10.80
2022-12-24T15:31:54.321Z,10.70
2022-12-24T15:34:28.565Z,10.80
2022-12-24T15:37:04.289Z,10.80
2022-12-24T15:39:32.255Z,10.80
2022-12-24T15:42:15.179Z,10.80
2022-12-24T15:44:50.611Z,10.70
2022-12-24T15:47:22.181Z,10.70
2022-12-24T15:49:53.180Z,10.70
2022-12-24T15:52:24.910Z,10.70
2022-12-24T15:54:57.658Z,10.70
2022-12-24T15:57:30.897Z,10.70
2022-12-24T16:00:01.488Z,10.70
2022-12-24T16:02:35.760Z,10.70
2022-12-24T16:05:20.427Z,10.70
2022-12-24T16:08:10.780Z,10.70
2022-12-24T16:10:40.924Z,10.70
2022-12-24T16:13:19.218Z,10.70
2022-12-24T16:15:53.048Z,10.70
2022-12-24T16:18:26.133Z,10.70
2022-12-24T16:20:55.702Z,10.60
2022-12-24T16:23:26.200Z,10.60
2022-12-24T16:25:54.337Z,10.50
2022-12-24T16:28:23.243Z,10.50
2022-12-24T16:30:55.472Z,10.60
2022-12-24T16:33:23.794Z,10.60
2022-12-24T16:35:51.806Z,10.60
2022-12-24T16:38:19.655Z,10.60
2022-12-24T16:40:48.058Z,10.60
2022-12-24T16:43:33.648Z,10.60
2022-12-24T16:46:05.329Z,10.60
2022-12-24T16:48:36.276Z,10.60
2022-12-24T16:51:04.283Z,10.60
2022-12-24T16:53:32.120Z,10.60
2022-12-24T16:55:59.961Z,10.60
2022-12-24T16:58:28.552Z,10.50
2022-12-24T17:00:56.878Z,10.50
2022-12-24T17:03:26.162Z,10.50
2022-12-24T17:05:54.032Z,10.50
2022-12-24T17:08:21.836Z,10.50
2022-12-24T17:10:52.466Z,10.50
2022-12-24T17:13:20.293Z,10.50
2022-12-24T17:15:48.156Z,10.50
2022-12-24T17:18:16.639Z,10.50
2022-12-24T17:20:45.794Z,10.50
2022-12-24T17:23:13.591Z,10.50
2022-12-24T17:25:41.413Z,10.50
2022-12-24T17:28:09.231Z,10.40
2022-12-24T17:30:40.007Z,10.40
2022-12-24T17:33:14.140Z,10.40
2022-12-24T17:35:43.162Z,10.30
2022-12-24T17:38:12.352Z,10.30
2022-12-24T17:40:40.175Z,10.20
2022-12-24T17:43:08.103Z,10.30
2022-12-24T17:45:35.936Z,10.30
2022-12-24T17:48:03.901Z,10.30
2022-12-24T17:50:31.725Z,10.30
2022-12-24T17:52:59.550Z,10.30
2022-12-24T17:55:28.722Z,10.30
2022-12-24T17:57:56.546Z,10.30
2022-12-24T18:00:28.100Z,10.30
2022-12-24T18:03:00.692Z,10.30
2022-12-24T18:05:28.663Z,10.30
2022-12-24T18:07:56.584Z,10.30
2022-12-24T18:10:24.752Z,10.30
2022-12-24T18:12:53.908Z,10.20
2022-12-24T18:15:22.099Z,10.20
2022-12-24T18:17:52.284Z,10.10
2022-12-24T18:20:20.504Z,10.00
2022-12-24T18:22:48.636Z,10.00
2022-12-24T18:25:17.069Z,9.90
2022-12-24T18:27:44.879Z,10.00
2022-12-24T18:30:15.084Z,9.90
2022-12-24T18:32:42.985Z,9.90
2022-12-24T18:35:11.518Z,9.90
2022-12-24T18:37:39.397Z,9.90
2022-12-24T18:40:08.633Z,9.80
2022-12-24T18:42:36.741Z,9.80
2022-12-24T18:45:04.907Z,9.80
2022-12-24T18:47:34.069Z,9.80
2022-12-24T18:50:02.158Z,9.80
2022-12-24T18:52:32.323Z,9.80
2022-12-24T18:55:00.160Z,9.80
2022-12-24T18:57:27.979Z,9.80
2022-12-24T18:59:55.885Z,9.80
2022-12-24T19:02:23.935Z,9.80
2022-12-24T19:04:53.300Z,9.80
2022-12-24T19:07:21.138Z,9.80
2022-12-24T19:09:48.988Z,9.80
2022-12-24T19:12:16.896Z,9.80
2022-12-24T19:14:44.721Z,9.80
2022-12-24T19:17:12.554Z,9.80
2022-12-24T19:19:40.387Z,9.70
2022-12-24T19:22:09.563Z,9.60
2022-12-24T19:24:37.375Z,9.60
2022-12-24T19:27:05.193Z,9.60
2022-12-24T19:29:32.996Z,9.70
2022-12-24T19:32:00.904Z,9.70
2022-12-24T19:34:28.928Z,9.80
2022-12-24T19:36:56.740Z,9.80
2022-12-24T19:39:31.727Z,9.80
2022-12-24T19:42:00.261Z,9.80
2022-12-24T19:44:28.499Z,9.70
2022-12-24T19:46:56.338Z,9.70
2022-12-24T19:49:24.145Z,9.60
2022-12-24T19:51:51.985Z,9.60
2022-12-24T19:54:19.825Z,9.70
2022-12-24T19:56:49.022Z,9.70
2022-12-24T19:59:17.895Z,9.70
2022-12-24T20:01:47.107Z,9.60
2022-12-24T20:04:18.225Z,9.70
2022-12-24T20:06:46.027Z,9.70
2022-12-24T20:09:14.362Z,9.70
2022-12-24T20:11:42.191Z,9.70
2022-12-24T20:14:12.725Z,9.60
2022-12-24T20:16:40.883Z,9.60
2022-12-24T20:19:13.944Z,9.60
2022-12-24T20:21:41.957Z,9.70
2022-12-24T20:24:09.926Z,9.70
2022-12-24T20:26:37.840Z,9.70
2022-12-24T20:29:07.564Z,9.70
2022-12-24T20:31:38.655Z,9.60
2022-12-24T20:34:07.343Z,9.70
2022-12-24T20:36:37.120Z,9.70
2022-12-24T20:39:05.717Z,9.60
2022-12-24T20:41:34.132Z,9.50
2022-12-24T20:44:04.401Z,9.60
2022-12-24T20:46:33.450Z,9.60
2022-12-24T20:49:02.747Z,9.60
2022-12-24T20:51:30.577Z,9.60
2022-12-24T20:54:00.651Z,9.60
2022-12-24T20:56:29.181Z,9.70
2022-12-24T20:58:58.328Z,9.70
2022-12-24T21:01:28.401Z,9.60
2022-12-24T21:04:00.151Z,9.70
2022-12-24T21:06:29.475Z,9.70
2022-12-24T21:08:57.338Z,9.70
2022-12-24T21:11:43.585Z,9.70
2022-12-24T21:14:11.673Z,9.70
2022-12-24T21:16:40.682Z,9.60
2022-12-24T21:19:09.908Z,9.60
2022-12-24T21:21:39.121Z,9.70
2022-12-24T21:24:07.745Z,9.70
2022-12-24T21:26:36.268Z,9.70
2022-12-24T21:29:06.554Z,9.70
2022-12-24T21:31:34.903Z,9.70
2022-12-24T21:34:03.461Z,9.70
2022-12-24T21:36:31.624Z,9.70
2022-12-24T21:39:00.795Z,9.70
2022-12-24T21:41:28.993Z,9.70
2022-12-24T21:43:56.805Z,9.70
2022-12-24T21:46:27.103Z,9.70
2022-12-24T21:49:14.028Z,9.70
2022-12-24T21:51:43.991Z,9.70
2022-12-24T21:54:27.101Z,9.60
2022-12-24T21:57:14.848Z,9.60
2022-12-24T21:59:42.988Z,9.60
2022-12-24T22:02:12.724Z,9.60
2022-12-24T22:04:41.051Z,9.50
2022-12-24T22:07:35.567Z,9.50
2022-12-24T22:10:23.063Z,9.40
2022-12-24T22:12:50.963Z,9.40
2022-12-24T22:15:19.234Z,9.40
2022-12-24T22:17:47.304Z,9.30
2022-12-24T22:20:15.261Z,9.30
2022-12-24T22:22:43.086Z,9.40
2022-12-24T22:25:12.325Z,9.20
2022-12-24T22:27:40.164Z,9.20
2022-12-24T22:30:09.412Z,9.20
2022-12-24T22:32:37.423Z,9.20
2022-12-24T22:35:05.778Z,9.30
2022-12-24T22:37:33.747Z,9.30
2022-12-24T22:40:01.594Z,9.30
2022-12-24T22:42:32.695Z,9.30
2022-12-24T22:45:00.833Z,9.30
2022-12-24T22:47:29.804Z,9.30
2022-12-24T22:49:57.611Z,9.30
2022-12-24T22:52:25.562Z,9.20
2022-12-24T22:54:53.431Z,9.20
2022-12-24T22:57:21.266Z,9.20
2022-12-24T22:59:50.434Z,9.20
